Time;durP1;ratioP1;P1;durP2;ratioP2;P2;SDS_P1;SDS_P2;PMS_P1;PMS_P2;Temp;Humidity;BMP_temperature;BMP_pressure;BME280_temperature;BME280_humidity;BME280_pressure;Samples;Min_cycle;Max_cycle;Signal;HPM_P1;HPM_P2
2023/09/16 00:02:24;;;;;;;6.32;4.63;;;11.70;99.90;;;;;;5022857;28;20029;-78
2023/09/16 00:04:51;;;;;;;7.88;4.57;;;11.60;99.90;;;;;;5015027;28;20038;-78
2023/09/16 00:07:17;;;;;;;7.85;5.20;;;11.60;99.90;;;;;;5014200;28;20022;-73
2023/09/16 00:09:42;;;;;;;8.95;4.50;;;11.50;99.90;;;;;;5011660;28;20067;-73
2023/09/16 00:12:09;;;;;;;7.60;4.38;;;11.50;99.90;;;;;;5012526;28;20056;-73
2023/09/16 00:14:35;;;;;;;8.05;5.45;;;11.50;99.90;;;;;;5024955;28;20424;-78
2023/09/16 00:17:04;;;;;;;5.85;5.10;;;11.50;99.90;;;;;;5031856;28;20428;-73
2023/09/16 00:19:29;;;;;;;6.95;4.97;;;11.40;99.90;;;;;;5030760;28;20070;-73
2023/09/16 00:21:55;;;;;;;8.88;4.85;;;11.50;99.90;;;;;;5032520;28;20021;-73
2023/09/16 00:24:21;;;;;;;5.53;4.47;;;11.40;99.90;;;;;;5032273;28;20363;-73
2023/09/16 00:26:47;;;;;;;7.57;5.07;;;11.40;99.90;;;;;;5032492;28;20044;-73
2023/09/16 00:29:12;;;;;;;6.00;4.22;;;11.40;99.90;;;;;;5031999;28;20033;-73
2023/09/16 00:31:38;;;;;;;9.30;4.85;;;11.40;99.90;;;;;;5031609;28;20028;-73
2023/09/16 00:34:04;;;;;;;9.50;5.18;;;11.40;99.90;;;;;;5032077;28;20405;-78
2023/09/16 00:36:29;;;;;;;6.05;4.50;;;11.40;99.90;;;;;;5030453;28;20025;-78
2023/09/16 00:38:55;;;;;;;6.60;4.68;;;11.40;99.90;;;;;;5031845;28;20137;-72
2023/09/16 00:41:21;;;;;;;9.13;4.75;;;11.50;99.90;;;;;;5031762;28;20544;-72
2023/09/16 00:43:46;;;;;;;6.65;4.65;;;11.40;99.90;;;;;;5031630;28;20394;-78
2023/09/16 00:46:12;;;;;;;8.30;4.88;;;11.50;99.90;;;;;;5022715;28;20469;-78
2023/09/16 00:48:39;;;;;;;7.18;4.88;;;11.50;99.90;;;;;;5015454;28;20075;-78
2023/09/16 00:51:06;;;;;;;8.85;4.90;;;11.40;99.90;;;;;;5012577;28;20638;-78
2023/09/16 00:53:33;;;;;;;8.02;5.30;;;11.50;99.90;;;;;;5013122;28;20033;-73
2023/09/16 00:55:59;;;;;;;6.70;4.88;;;11.50;99.90;;;;;;5016608;28;20038;-78
2023/09/16 00:58:26;;;;;;;20.58;5.53;;;11.40;99.90;;;;;;5014187;28;20067;-78
2023/09/16 01:00:52;;;;;;;6.72;4.95;;;11.40;99.90;;;;;;5011391;28;20419;-72
2023/09/16 01:03:19;;;;;;;5.05;4.35;;;11.50;99.90;;;;;;5013514;28;20022;-73
2023/09/16 01:05:47;;;;;;;7.45;5.07;;;11.40;99.90;;;;;;5030782;28;20049;-72
2023/09/16 01:08:13;;;;;;;6.03;4.72;;;11.40;99.90;;;;;;5030163;28;20025;-78
2023/09/16 01:10:40;;;;;;;9.27;5.63;;;11.40;99.90;;;;;;5027922;28;20022;-72
2023/09/16 01:13:07;;;;;;;7.38;5.05;;;11.40;99.90;;;;;;5017933;28;20498;-73
2023/09/16 01:15:39;;;;;;;8.20;5.10;;;11.30;99.90;;;;;;5012345;28;20139;-73
2023/09/16 01:18:40;;;;;;;8.23;5.43;;;11.30;99.90;;;;;;5022663;28;21753;-73
2023/09/16 01:21:08;;;;;;;7.13;5.40;;;11.30;99.90;;;;;;5018396;28;20041;-73
2023/09/16 01:23:34;;;;;;;7.53;5.63;;;11.30;99.90;;;;;;5019144;28;20033;-73
2023/09/16 01:25:59;;;;;;;8.00;5.25;;;11.20;99.90;;;;;;5015431;28;20037;-73
2023/09/16 01:28:26;;;;;;;8.80;5.45;;;11.20;99.90;;;;;;5030245;28;20025;-78
2023/09/16 01:30:55;;;;;;;9.02;5.13;;;11.20;99.90;;;;;;5038817;28;20026;-78
2023/09/16 01:33:48;;;;;;;5.50;4.60;;;11.20;99.90;;;;;;5030996;28;20447;-73
2023/09/16 01:36:23;;;;;;;5.97;4.72;;;11.30;99.90;;;;;;5036114;28;20116;-73
2023/09/16 01:38:56;;;;;;;8.60;4.75;;;11.30;99.90;;;;;;5049973;28;20044;-72
2023/09/16 01:41:23;;;;;;;7.80;5.20;;;11.40;99.90;;;;;;5030973;28;20025;-73
2023/09/16 01:43:49;;;;;;;7.85;4.97;;;11.40;99.90;;;;;;5031989;28;20033;-78
2023/09/16 01:46:15;;;;;;;7.03;5.70;;;11.40;99.90;;;;;;5041008;28;20040;-72
2023/09/16 01:48:41;;;;;;;7.00;4.80;;;11.40;99.90;;;;;;5040059;28;20025;-72
2023/09/16 01:51:07;;;;;;;7.72;4.93;;;11.40;99.90;;;;;;5042330;28;20028;-73
2023/09/16 01:53:32;;;;;;;5.22;4.32;;;11.50;99.90;;;;;;5044435;28;20479;-72
2023/09/16 01:55:58;;;;;;;10.18;4.85;;;11.50;99.90;;;;;;5036447;28;20022;-78
2023/09/16 01:58:24;;;;;;;5.97;4.80;;;11.50;99.90;;;;;;5019198;28;20034;-78
2023/09/16 02:00:50;;;;;;;7.25;5.03;;;11.50;99.90;;;;;;5015275;28;20404;-77
2023/09/16 02:03:15;;;;;;;7.10;5.38;;;11.50;99.90;;;;;;5019154;28;20429;-78
2023/09/16 02:05:41;;;;;;;6.60;4.88;;;11.50;99.90;;;;;;5014046;28;20037;-78
2023/09/16 02:08:07;;;;;;;6.75;4.60;;;11.50;99.90;;;;;;5009731;28;20502;-78
2023/09/16 02:10:33;;;;;;;6.63;4.55;;;11.50;99.90;;;;;;5017470;28;20022;-73
2023/09/16 02:12:59;;;;;;;7.00;4.35;;;11.50;99.90;;;;;;5020920;28;20037;-73
2023/09/16 02:15:24;;;;;;;10.85;5.05;;;11.50;99.90;;;;;;5039620;28;20055;-73
2023/09/16 02:17:50;;;;;;;6.95;4.57;;;11.50;99.90;;;;;;5029163;28;20032;-78
2023/09/16 02:20:16;;;;;;;7.40;4.43;;;11.50;99.90;;;;;;5045426;28;20025;-78
2023/09/16 02:22:44;;;;;;;7.13;4.45;;;11.40;99.90;;;;;;5018771;28;20498;-73
2023/09/16 02:25:10;;;;;;;5.18;4.38;;;11.40;99.90;;;;;;5043539;28;20040;-78
2023/09/16 02:27:35;;;;;;;6.32;4.55;;;11.30;99.90;;;;;;5032143;28;20112;-78
2023/09/16 02:30:01;;;;;;;7.68;4.47;;;11.30;99.90;;;;;;5030150;28;20075;-78
2023/09/16 02:32:28;;;;;;;7.70;4.57;;;11.40;99.90;;;;;;5026368;28;20468;-73
2023/09/16 02:34:54;;;;;;;7.25;5.25;;;11.30;99.90;;;;;;5030433;28;20102;-73
2023/09/16 02:37:20;;;;;;;7.45;5.20;;;11.30;99.90;;;;;;5028701;28;20095;-78
2023/09/16 02:39:46;;;;;;;11.27;4.95;;;11.20;99.90;;;;;;5023555;28;20423;-78
2023/09/16 02:42:12;;;;;;;8.00;5.53;;;11.10;99.90;;;;;;5049485;28;20024;-78
2023/09/16 02:44:37;;;;;;;8.38;5.60;;;11.20;99.90;;;;;;5042617;28;20071;-73
2023/09/16 02:47:03;;;;;;;6.10;5.00;;;11.10;99.90;;;;;;5029894;28;20029;-73
2023/09/16 02:49:31;;;;;;;5.97;5.20;;;11.00;99.90;;;;;;5035529;28;20060;-72
2023/09/16 02:51:56;;;;;;;8.55;5.57;;;11.00;99.90;;;;;;5031132;28;20015;-78
2023/09/16 02:54:22;;;;;;;8.18;5.57;;;10.90;99.90;;;;;;5012792;28;20075;-78
2023/09/16 02:56:48;;;;;;;6.43;5.35;;;10.90;99.90;;;;;;5011867;28;20471;-73
2023/09/16 02:59:13;;;;;;;9.70;6.70;;;10.80;99.90;;;;;;5011317;28;20463;-78
2023/09/16 03:01:39;;;;;;;8.13;6.30;;;10.80;99.90;;;;;;5013394;28;20037;-78
2023/09/16 03:04:05;;;;;;;8.63;6.00;;;10.80;99.90;;;;;;5018998;28;20033;-72
2023/09/16 03:06:30;;;;;;;8.70;5.90;;;10.70;99.90;;;;;;5011395;28;20415;-72
2023/09/16 03:08:56;;;;;;;8.85;5.80;;;10.70;99.90;;;;;;5016308;28;20018;-77
2023/09/16 03:11:22;;;;;;;8.90;6.65;;;10.70;99.90;;;;;;5040872;28;20115;-78
2023/09/16 03:13:48;;;;;;;9.40;6.45;;;10.60;99.90;;;;;;5017226;28;20108;-72
2023/09/16 03:16:21;;;;;;;7.97;6.30;;;10.60;99.90;;;;;;5029623;28;20022;-78
2023/09/16 03:18:49;;;;;;;6.30;5.70;;;10.70;99.90;;;;;;5028086;28;20022;-78
2023/09/16 03:21:16;;;;;;;9.85;6.20;;;10.70;99.90;;;;;;5028550;28;20526;-77
2023/09/16 03:23:42;;;;;;;8.68;6.10;;;10.60;99.90;;;;;;5028850;28;20030;-77
2023/09/16 03:26:09;;;;;;;6.57;5.85;;;10.60;99.90;;;;;;5029731;28;20041;-78
2023/09/16 03:28:35;;;;;;;7.07;6.10;;;10.60;99.90;;;;;;5031941;28;20396;-73
2023/09/16 03:31:01;;;;;;;15.07;6.28;;;10.50;99.90;;;;;;5029460;28;20112;-77
2023/09/16 03:33:27;;;;;;;13.20;6.72;;;10.50;99.90;;;;;;5028668;28;20535;-77
2023/09/16 03:35:52;;;;;;;7.18;6.32;;;10.50;99.90;;;;;;5029300;28;20025;-78
2023/09/16 03:38:18;;;;;;;8.32;6.82;;;10.40;99.90;;;;;;5029417;28;20060;-78
2023/09/16 03:40:44;;;;;;;8.85;7.68;;;10.40;99.90;;;;;;5028266;28;20033;-73
2023/09/16 03:43:10;;;;;;;9.07;7.28;;;10.40;99.90;;;;;;5029144;28;20017;-73
2023/09/16 03:45:35;;;;;;;9.73;7.30;;;10.40;99.90;;;;;;5028936;28;20038;-72
2023/09/16 03:48:01;;;;;;;9.98;7.18;;;10.40;99.90;;;;;;5023163;28;20054;-72
2023/09/16 03:50:27;;;;;;;9.27;6.80;;;10.30;99.90;;;;;;5015288;28;20071;-72
2023/09/16 03:52:53;;;;;;;6.68;6.05;;;10.40;99.90;;;;;;5014225;28;20100;-78
2023/09/16 03:55:19;;;;;;;8.70;6.43;;;10.30;99.90;;;;;;5037002;28;20130;-78
2023/09/16 03:57:44;;;;;;;7.00;5.70;;;10.30;99.90;;;;;;5016747;28;20025;-72
2023/09/16 04:00:11;;;;;;;7.07;6.28;;;10.30;99.90;;;;;;5033979;28;20165;-72
2023/09/16 04:02:38;;;;;;;10.18;7.28;;;10.30;99.90;;;;;;5015781;28;20530;-73
2023/09/16 04:05:05;;;;;;;7.57;6.55;;;10.30;99.90;;;;;;5026096;28;20030;-72
2023/09/16 04:07:31;;;;;;;9.27;7.50;;;10.30;99.90;;;;;;5032239;28;20132;-72
2023/09/16 04:09:57;;;;;;;8.25;7.30;;;10.30;99.90;;;;;;5030089;28;20112;-77
2023/09/16 04:12:23;;;;;;;7.03;6.32;;;10.30;99.90;;;;;;5027221;28;20102;-78
2023/09/16 04:14:48;;;;;;;9.52;7.18;;;10.30;99.90;;;;;;5024757;28;20474;-72
2023/09/16 04:17:14;;;;;;;10.80;7.25;;;10.30;99.90;;;;;;5032192;28;20070;-78
2023/09/16 04:19:40;;;;;;;8.30;6.95;;;10.40;99.90;;;;;;5030547;28;20021;-79
2023/09/16 04:22:05;;;;;;;10.30;7.03;;;10.30;99.90;;;;;;5032134;28;20069;-78
2023/09/16 04:24:31;;;;;;;6.70;5.30;;;10.40;99.90;;;;;;5031902;28;20031;-72
2023/09/16 04:26:57;;;;;;;7.38;5.65;;;10.40;99.90;;;;;;5032010;28;20029;-78
2023/09/16 04:29:22;;;;;;;6.50;5.80;;;10.40;99.90;;;;;;5031977;28;20029;-78
2023/09/16 04:31:48;;;;;;;7.93;5.53;;;10.40;99.90;;;;;;5046127;28;20044;-78
2023/09/16 04:34:14;;;;;;;8.15;5.57;;;10.50;99.90;;;;;;5049580;28;20021;-72
2023/09/16 04:36:40;;;;;;;6.47;5.88;;;10.50;99.90;;;;;;5038551;28;20021;-78
2023/09/16 04:39:06;;;;;;;5.97;5.22;;;10.40;99.90;;;;;;5032116;28;20057;-77
2023/09/16 04:41:31;;;;;;;8.90;6.03;;;10.50;99.90;;;;;;5038301;28;20056;-78
2023/09/16 04:43:58;;;;;;;6.45;4.72;;;10.50;99.90;;;;;;5037468;28;20041;-78
2023/09/16 04:46:23;;;;;;;7.15;5.82;;;10.50;99.90;;;;;;5030397;28;20029;-72
2023/09/16 04:48:49;;;;;;;8.52;6.60;;;10.50;99.90;;;;;;5035796;28;20022;-72
2023/09/16 04:51:15;;;;;;;6.57;5.53;;;10.60;99.90;;;;;;5015381;28;20025;-78
2023/09/16 04:53:41;;;;;;;7.32;5.50;;;10.60;99.90;;;;;;5014815;28;20520;-72
2023/09/16 04:56:09;;;;;;;7.18;5.65;;;10.60;99.90;;;;;;5027969;28;20014;-78
2023/09/16 04:58:36;;;;;;;7.38;6.30;;;10.70;99.90;;;;;;5021914;28;20018;-73
2023/09/16 05:01:05;;;;;;;7.47;6.28;;;10.70;99.90;;;;;;5012800;28;20538;-72
2023/09/16 05:03:31;;;;;;;8.68;5.65;;;10.70;99.90;;;;;;5025894;28;20047;-78
2023/09/16 05:05:56;;;;;;;6.75;5.55;;;10.80;99.90;;;;;;5038364;28;20045;-78
2023/09/16 05:08:22;;;;;;;7.80;6.00;;;10.80;99.90;;;;;;5037363;28;20429;-72
2023/09/16 05:10:55;;;;;;;7.78;5.70;;;10.90;99.90;;;;;;5038124;28;20017;-78
2023/09/16 05:13:20;;;;;;;;;;;10.90;99.90;;;;;;5027551;28;20040;-78
2023/09/16 05:15:47;;;;;;;8.43;6.55;;;10.90;99.90;;;;;;5046601;28;20003;-78
2023/09/16 05:18:14;;;;;;;6.20;5.53;;;11.00;99.90;;;;;;5033119;28;20104;-78
2023/09/16 05:20:39;;;;;;;7.85;6.05;;;11.10;99.90;;;;;;5046001;28;20104;-73
2023/09/16 05:23:05;;;;;;;10.48;6.18;;;11.20;99.90;;;;;;5032606;28;20104;-72
2023/09/16 05:25:30;;;;;;;9.15;6.60;;;11.30;99.90;;;;;;5039003;28;20439;-73
2023/09/16 05:27:56;;;;;;;7.68;6.22;;;11.40;99.90;;;;;;5031832;28;20066;-73
2023/09/16 05:30:22;;;;;;;8.75;6.65;;;11.40;99.90;;;;;;5020174;28;20037;-73
2023/09/16 05:32:47;;;;;;;8.25;6.25;;;11.50;99.90;;;;;;5029269;28;20033;-72
2023/09/16 05:35:13;;;;;;;7.18;6.47;;;11.60;99.90;;;;;;5030070;28;20371;-72
2023/09/16 05:37:38;;;;;;;8.52;5.95;;;11.60;99.90;;;;;;5030573;28;20507;-72
2023/09/16 05:40:05;;;;;;;8.93;6.40;;;11.80;99.90;;;;;;5037994;28;20029;-73
2023/09/16 05:42:30;;;;;;;6.95;6.03;;;11.90;99.90;;;;;;5028012;28;20527;-73
2023/09/16 05:44:56;;;;;;;7.15;6.10;;;11.90;99.90;;;;;;5031096;28;20082;-78
2023/09/16 05:47:22;;;;;;;9.38;6.07;;;12.00;99.90;;;;;;5030596;28;20029;-73
2023/09/16 05:49:47;;;;;;;10.27;6.90;;;12.10;99.90;;;;;;5032293;28;20068;-73
2023/09/16 05:52:13;;;;;;;7.40;6.20;;;12.20;99.90;;;;;;5032106;28;20371;-73
2023/09/16 05:54:39;;;;;;;8.57;6.28;;;12.30;99.90;;;;;;5022972;28;20032;-72
2023/09/16 05:57:05;;;;;;;12.75;6.10;;;12.30;99.90;;;;;;5033294;28;20017;-73
2023/09/16 05:59:30;;;;;;;8.13;6.05;;;12.50;99.90;;;;;;5021157;28;20406;-78
2023/09/16 06:01:56;;;;;;;8.82;6.53;;;12.60;99.90;;;;;;5033420;28;20038;-78
2023/09/16 06:04:22;;;;;;;6.60;5.55;;;12.70;99.90;;;;;;5025850;28;20065;-72
2023/09/16 06:06:49;;;;;;;7.90;5.55;;;12.80;99.90;;;;;;5028044;28;20025;-79
2023/09/16 06:09:15;;;;;;;6.50;5.53;;;12.90;99.90;;;;;;5025402;28;20332;-78
2023/09/16 06:11:40;;;;;;;9.65;5.68;;;13.00;99.90;;;;;;5026024;27;20029;-78
2023/09/16 06:14:06;;;;;;;9.88;5.82;;;13.10;99.90;;;;;;5029121;27;20018;-78
2023/09/16 06:16:32;;;;;;;7.18;5.00;;;13.20;99.90;;;;;;5015659;28;20022;-73
2023/09/16 06:18:58;;;;;;;7.63;5.35;;;13.40;99.90;;;;;;5031972;28;20468;-73
2023/09/16 06:21:24;;;;;;;9.45;6.55;;;13.50;99.90;;;;;;5024536;28;20103;-78
2023/09/16 06:23:49;;;;;;;11.10;7.60;;;13.50;99.90;;;;;;5022727;28;20434;-72
2023/09/16 06:26:15;;;;;;;11.30;7.68;;;13.40;99.90;;;;;;5027066;28;20033;-72
2023/09/16 06:28:42;;;;;;;9.52;6.97;;;13.50;99.90;;;;;;5026273;28;20121;-73
2023/09/16 06:31:07;;;;;;;7.78;6.93;;;13.50;99.90;;;;;;5025466;28;20022;-72
2023/09/16 06:33:33;;;;;;;7.57;6.78;;;13.50;99.90;;;;;;5013452;28;20067;-73
2023/09/16 06:35:59;;;;;;;9.23;7.10;;;13.50;99.90;;;;;;5020700;28;20514;-73
2023/09/16 06:38:25;;;;;;;8.45;7.22;;;13.60;99.90;;;;;;5033814;28;20041;-73
2023/09/16 06:40:51;;;;;;;10.00;7.22;;;13.70;99.90;;;;;;5032776;28;20032;-73
2023/09/16 06:43:16;;;;;;;10.18;7.63;;;13.70;99.90;;;;;;5040328;28;20438;-73
2023/09/16 06:45:42;;;;;;;7.07;6.30;;;13.70;99.90;;;;;;5032411;28;20137;-72
2023/09/16 06:48:08;;;;;;;8.23;6.55;;;13.90;99.90;;;;;;5034239;28;20021;-73
2023/09/16 06:50:34;;;;;;;8.32;6.80;;;14.00;99.90;;;;;;5030909;28;20040;-72
2023/09/16 06:53:00;;;;;;;10.43;6.75;;;14.10;99.90;;;;;;5028439;28;20022;-78
2023/09/16 06:55:26;;;;;;;9.52;6.90;;;14.10;99.90;;;;;;5029512;28;20454;-78
2023/09/16 06:57:52;;;;;;;9.45;7.50;;;14.10;99.90;;;;;;5035159;28;20073;-78
2023/09/16 07:00:17;;;;;;;11.25;6.93;;;14.20;99.90;;;;;;5032204;28;20026;-78
2023/09/16 07:02:43;;;;;;;8.85;6.95;;;14.20;99.90;;;;;;5036747;28;20538;-78
2023/09/16 07:05:10;;;;;;;8.05;7.13;;;14.30;99.90;;;;;;5023089;28;20030;-78
2023/09/16 07:07:35;;;;;;;12.07;7.28;;;14.20;99.90;;;;;;5038085;28;20028;-77
2023/09/16 07:10:01;;;;;;;12.43;6.30;;;14.30;99.90;;;;;;5034387;28;20029;-77
2023/09/16 07:12:27;;;;;;;10.35;7.13;;;14.30;99.90;;;;;;5029987;28;20045;-78
2023/09/16 07:14:52;;;;;;;8.05;7.25;;;14.40;99.90;;;;;;5026995;28;20034;-77
2023/09/16 07:17:18;;;;;;;12.77;9.23;;;14.40;99.90;;;;;;5012752;28;20030;-72
2023/09/16 07:19:44;;;;;;;9.10;7.75;;;14.20;99.90;;;;;;5030411;28;20395;-71
2023/09/16 07:22:09;;;;;;;11.35;8.43;;;14.10;99.90;;;;;;5022531;28;20100;-72
2023/09/16 07:24:37;;;;;;;10.60;8.30;;;14.10;99.90;;;;;;5025013;28;20026;-72
2023/09/16 07:27:03;;;;;;;10.40;8.40;;;14.10;99.90;;;;;;5044158;28;20045;-77
2023/09/16 07:29:28;;;;;;;11.95;8.48;;;14.10;99.90;;;;;;5024001;28;20022;-76
2023/09/16 07:31:54;;;;;;;11.38;9.07;;;13.90;99.90;;;;;;5030071;28;20020;-76
2023/09/16 07:34:22;;;;;;;10.30;8.50;;;14.00;99.90;;;;;;5033714;28;20259;-76
2023/09/16 07:36:47;;;;;;;10.63;7.70;;;14.20;99.90;;;;;;5030731;28;20025;-71
2023/09/16 07:39:13;;;;;;;9.50;8.15;;;14.30;99.90;;;;;;5043777;28;20551;-75
2023/09/16 07:41:40;;;;;;;11.38;8.63;;;14.50;99.90;;;;;;5035018;28;20014;-76
2023/09/16 07:44:06;;;;;;;9.32;8.32;;;14.70;99.90;;;;;;5035489;28;20112;-70
2023/09/16 07:46:31;;;;;;;9.90;8.38;;;14.90;99.90;;;;;;5034973;28;20041;-70
2023/09/16 07:48:57;;;;;;;11.30;7.93;;;14.70;99.90;;;;;;5034797;28;20025;-76
2023/09/16 07:51:23;;;;;;;14.20;9.57;;;14.70;99.90;;;;;;5032666;28;20026;-75
2023/09/16 07:53:48;;;;;;;9.32;8.02;;;14.70;99.90;;;;;;5028357;28;20139;-70
2023/09/16 07:56:18;;;;;;;9.55;8.55;;;14.80;99.90;;;;;;5041235;28;20017;-72
2023/09/16 07:58:43;;;;;;;10.27;8.00;;;14.90;99.90;;;;;;5034805;28;20056;-75
2023/09/16 08:01:09;;;;;;;11.27;8.75;;;14.90;99.90;;;;;;5032664;28;20415;-76
2023/09/16 08:03:37;;;;;;;8.68;7.28;;;14.90;99.90;;;;;;5015640;28;20063;-76
2023/09/16 08:06:03;;;;;;;11.02;8.98;;;15.00;99.90;;;;;;5021430;28;20041;-76
2023/09/16 08:08:29;;;;;;;10.02;8.93;;;15.20;99.90;;;;;;5019464;28;20468;-70
2023/09/16 08:10:55;;;;;;;9.40;8.50;;;15.30;99.90;;;;;;5020382;28;20025;-70
2023/09/16 08:13:21;;;;;;;9.80;8.27;;;15.30;99.90;;;;;;5020409;28;20041;-70
2023/09/16 08:15:46;;;;;;;10.75;8.35;;;15.30;99.90;;;;;;5022335;28;20150;-70
2023/09/16 08:18:12;;;;;;;11.13;8.68;;;15.20;99.90;;;;;;5027018;28;20113;-70
2023/09/16 08:20:38;;;;;;;11.75;8.63;;;15.00;99.90;;;;;;5032146;28;20026;-70
2023/09/16 08:23:04;;;;;;;10.45;8.55;;;14.90;99.90;;;;;;5043840;28;20459;-70
2023/09/16 08:25:30;;;;;;;13.75;9.82;;;14.80;99.90;;;;;;5036191;28;20159;-70
2023/09/16 08:27:55;;;;;;;12.75;9.30;;;14.70;99.90;;;;;;5049988;28;20107;-76
2023/09/16 08:30:21;;;;;;;11.65;8.88;;;14.90;99.90;;;;;;5030788;28;20398;-76
2023/09/16 08:32:48;;;;;;;12.77;9.35;;;14.90;99.90;;;;;;5031789;28;20022;-70
2023/09/16 08:35:13;;;;;;;14.40;10.30;;;15.00;99.90;;;;;;5032101;28;20044;-75
2023/09/16 08:37:39;;;;;;;10.57;9.43;;;15.10;99.90;;;;;;5045627;28;20048;-76
2023/09/16 08:40:05;;;;;;;10.20;9.10;;;15.20;99.90;;;;;;5041567;28;20100;-70
2023/09/16 08:42:44;;;;;;;14.57;9.52;;;15.30;99.90;;;;;;5048324;28;20029;-75
2023/09/16 08:45:15;;;;;;;13.07;10.27;;;15.40;99.90;;;;;;5031959;28;20394;-76
2023/09/16 08:47:46;;;;;;;11.55;10.35;;;15.30;99.90;;;;;;5030278;28;20059;-76
2023/09/16 08:50:12;;;;;;;10.43;9.00;;;15.40;99.90;;;;;;5030730;28;20036;-71
2023/09/16 08:52:46;;;;;;;14.52;10.05;;;15.60;99.90;;;;;;5043388;28;20021;-70
2023/09/16 08:55:13;;;;;;;14.25;10.90;;;15.50;99.90;;;;;;5030427;28;20491;-70
2023/09/16 08:57:45;;;;;;;13.20;10.48;;;15.80;99.90;;;;;;5031509;28;20035;-76
2023/09/16 09:00:12;;;;;;;11.60;10.27;;;16.00;99.90;;;;;;5042146;28;20021;-71
2023/09/16 09:02:39;;;;;;;11.63;9.23;;;16.00;99.90;;;;;;5031403;28;20030;-76
2023/09/16 09:05:07;;;;;;;12.45;9.93;;;16.10;99.90;;;;;;5030018;28;20040;-76
2023/09/16 09:07:38;;;;;;;10.98;9.85;;;16.30;99.90;;;;;;5038878;28;20025;-76
2023/09/16 09:10:04;;;;;;;11.95;8.25;;;16.50;99.90;;;;;;5035095;28;20036;-71
2023/09/16 09:12:35;;;;;;;10.23;7.47;;;16.80;99.90;;;;;;5025086;28;20026;-70
2023/09/16 09:15:04;;;;;;;12.57;8.30;;;16.90;99.90;;;;;;5026860;28;20032;-76
2023/09/16 09:17:38;;;;;;;10.30;8.43;;;17.10;99.90;;;;;;5029967;28;20475;-76
2023/09/16 09:20:26;;;;;;;9.23;7.93;;;17.10;99.90;;;;;;5031088;28;20018;-77
2023/09/16 09:22:52;;;;;;;11.00;8.00;;;17.20;99.90;;;;;;5041394;28;20062;-77
2023/09/16 09:25:23;;;;;;;11.18;7.60;;;17.30;99.90;;;;;;5035141;28;20086;-71
2023/09/16 09:27:50;;;;;;;9.93;8.23;;;17.30;99.90;;;;;;5032016;28;20150;-76
2023/09/16 09:30:21;;;;;;;11.75;8.20;;;17.50;99.90;;;;;;5045510;28;20048;-70
2023/09/16 09:32:47;;;;;;;8.05;7.32;;;17.60;99.90;;;;;;5043474;28;20025;-76
2023/09/16 09:35:13;;;;;;;11.23;8.25;;;17.60;99.90;;;;;;5031118;28;20025;-76
2023/09/16 09:37:40;;;;;;;9.10;8.20;;;17.70;99.90;;;;;;5044034;28;20064;-71
2023/09/16 09:40:11;;;;;;;9.95;8.25;;;17.80;99.90;;;;;;5040988;28;20111;-76
2023/09/16 09:42:42;;;;;;;8.25;7.47;;;17.90;99.90;;;;;;5038357;28;20129;-71
2023/09/16 09:45:09;;;;;;;9.80;8.77;;;18.00;99.90;;;;;;5032824;28;20494;-76
2023/09/16 09:47:35;;;;;;;12.00;8.73;;;18.00;98.40;;;;;;5034097;28;20033;-77
2023/09/16 09:50:02;;;;;;;10.98;9.05;;;17.70;98.70;;;;;;5029370;28;20032;-70
2023/09/16 09:52:28;;;;;;;9.15;7.80;;;17.70;99.90;;;;;;5022257;28;20024;-77
2023/09/16 09:54:57;;;;;;;12.07;8.82;;;17.70;99.10;;;;;;5029721;28;20025;-76
2023/09/16 09:57:23;;;;;;;9.60;8.60;;;17.80;99.20;;;;;;5029465;28;20022;-77
2023/09/16 09:59:49;;;;;;;13.57;8.93;;;17.70;99.10;;;;;;5031230;28;20402;-77
2023/09/16 10:02:15;;;;;;;9.13;8.27;;;17.70;99.20;;;;;;5031308;28;20036;-77
2023/09/16 10:04:41;;;;;;;10.93;8.48;;;17.80;99.90;;;;;;5035763;28;20446;-77
2023/09/16 10:07:07;;;;;;;14.98;8.48;;;18.00;99.90;;;;;;5034272;28;20049;-77
2023/09/16 10:09:33;;;;;;;9.48;7.82;;;18.20;98.70;;;;;;5032087;28;20479;-77
2023/09/16 10:12:00;;;;;;;11.63;9.32;;;18.30;96.40;;;;;;5036059;28;20121;-76
2023/09/16 10:14:25;;;;;;;11.45;9.82;;;18.40;95.90;;;;;;5020791;28;20022;-76
2023/09/16 10:16:53;;;;;;;8.90;8.02;;;18.30;95.50;;;;;;5029982;28;20033;-77
2023/09/16 10:19:21;;;;;;;11.65;9.13;;;18.30;93.90;;;;;;5039642;28;20061;-76
2023/09/16 10:21:47;;;;;;;10.13;7.93;;;18.40;94.70;;;;;;5035508;28;20021;-71
2023/09/16 10:24:13;;;;;;;8.70;7.80;;;18.40;94.30;;;;;;5036519;28;20079;-77
2023/09/16 10:26:39;;;;;;;8.77;7.57;;;18.60;95.40;;;;;;5031098;28;20037;-78
2023/09/16 10:29:08;;;;;;;8.77;7.53;;;18.70;93.30;;;;;;5030624;28;20095;-71
2023/09/16 10:31:35;;;;;;;9.75;7.82;;;18.80;91.50;;;;;;5026131;28;20427;-71
2023/09/16 10:34:02;;;;;;;9.23;7.70;;;18.80;91.20;;;;;;5032711;28;20093;-71
2023/09/16 10:36:29;;;;;;;8.68;7.35;;;18.90;88.70;;;;;;5040506;28;20028;-76
2023/09/16 10:38:56;;;;;;;9.70;7.55;;;18.90;86.60;;;;;;5028676;28;20126;-77
2023/09/16 10:41:24;;;;;;;10.60;9.18;;;19.10;87.50;;;;;;5029827;28;20139;-71
2023/09/16 10:43:51;;;;;;;9.05;8.18;;;19.00;84.30;;;;;;5039136;28;20057;-77
2023/09/16 10:46:17;;;;;;;10.43;8.70;;;19.20;87.70;;;;;;5032125;28;20049;-77
2023/09/16 10:48:43;;;;;;;11.38;7.68;;;19.30;89.60;;;;;;5037341;28;20033;-71
2023/09/16 10:51:17;;;;;;;10.52;7.93;;;19.30;84.70;;;;;;5032483;28;20026;-71
2023/09/16 10:53:46;;;;;;;8.55;6.50;;;19.40;87.90;;;;;;5042222;28;20112;-77
2023/09/16 10:56:36;;;;;;;9.10;7.03;;;19.30;81.10;;;;;;5035245;28;20021;-71
2023/09/16 10:59:08;;;;;;;8.30;7.40;;;19.40;84.30;;;;;;5030981;28;20032;-73
2023/09/16 11:01:39;;;;;;;14.95;7.70;;;19.20;83.50;;;;;;5030452;28;20053;-71
2023/09/16 11:04:16;;;;;;;8.43;7.22;;;19.30;86.60;;;;;;5030610;28;20024;-72
2023/09/16 11:06:43;;;;;;;10.48;8.55;;;19.30;86.50;;;;;;5033973;28;20025;-78
2023/09/16 11:09:09;;;;;;;8.18;6.95;;;19.30;88.50;;;;;;5029736;28;20471;-77
2023/09/16 11:11:36;;;;;;;9.15;7.57;;;19.20;87.50;;;;;;5025159;28;20046;-77
2023/09/16 11:14:04;;;;;;;6.75;6.00;;;19.30;86.70;;;;;;5016666;28;20026;-77
2023/09/16 11:16:45;;;;;;;8.32;6.55;;;19.40;85.20;;;;;;5015411;28;20054;-77
2023/09/16 11:19:15;;;;;;;12.32;5.72;;;19.50;82.30;;;;;;5018604;28;20020;-77
2023/09/16 11:21:43;;;;;;;6.75;5.70;;;19.70;83.10;;;;;;5014619;28;20021;-77
2023/09/16 11:24:10;;;;;;;9.73;5.88;;;19.90;83.60;;;;;;5022494;28;20047;-78
2023/09/16 11:26:39;;;;;;;7.78;5.70;;;19.90;79.10;;;;;;5023576;28;20033;-77
2023/09/16 11:29:19;;;;;;;6.88;5.82;;;19.90;77.70;;;;;;5013697;28;20021;-78
2023/09/16 11:31:45;;;;;;;8.25;5.95;;;19.90;79.30;;;;;;5018922;28;20483;-78
2023/09/16 11:34:12;;;;;;;8.48;6.75;;;19.90;80.60;;;;;;5016980;28;20029;-72
2023/09/16 11:36:45;;;;;;;8.05;5.97;;;20.00;78.90;;;;;;5026334;28;20100;-78
2023/09/16 11:39:10;;;;;;;7.90;6.63;;;20.00;78.60;;;;;;5020493;28;20060;-73
2023/09/16 11:41:36;;;;;;;8.55;6.18;;;20.00;78.10;;;;;;5020548;28;20021;-73
2023/09/16 11:44:04;;;;;;;7.93;6.30;;;20.00;78.80;;;;;;5013720;28;20097;-70
2023/09/16 11:46:31;;;;;;;8.50;6.25;;;20.00;78.70;;;;;;5030035;28;20486;-70
2023/09/16 11:49:02;;;;;;;8.98;6.60;;;20.00;77.80;;;;;;5014539;28;20018;-70
2023/09/16 11:51:29;;;;;;;8.77;6.30;;;20.00;78.80;;;;;;5013595;28;20026;-70
2023/09/16 11:53:55;;;;;;;8.15;5.53;;;20.10;78.40;;;;;;5018734;28;20061;-70
2023/09/16 11:56:29;;;;;;;6.68;5.45;;;20.10;77.70;;;;;;5014829;28;20511;-70
2023/09/16 11:58:55;;;;;;;9.77;5.63;;;20.30;79.00;;;;;;5013586;28;20051;-70
2023/09/16 12:01:23;;;;;;;7.15;5.78;;;20.20;76.60;;;;;;5024406;28;20021;-70
2023/09/16 12:03:49;;;;;;;7.57;6.28;;;20.30;76.70;;;;;;5027091;28;20536;-70
2023/09/16 12:06:17;;;;;;;7.32;6.22;;;20.40;76.60;;;;;;5027399;28;20075;-76
2023/09/16 12:08:45;;;;;;;7.00;6.30;;;20.40;77.00;;;;;;5031374;28;20420;-76
2023/09/16 12:11:11;;;;;;;9.20;6.18;;;20.60;77.10;;;;;;5031682;28;20014;-76
2023/09/16 12:13:41;;;;;;;6.78;5.30;;;20.50;74.90;;;;;;5021727;28;20040;-76
2023/09/16 12:16:07;;;;;;;8.43;5.88;;;20.60;76.00;;;;;;5029872;28;20471;-76
2023/09/16 12:18:32;;;;;;;9.32;5.63;;;20.60;74.50;;;;;;5039735;28;20103;-76
2023/09/16 12:20:58;;;;;;;7.38;6.10;;;20.60;73.60;;;;;;5029622;28;20025;-71
2023/09/16 12:23:28;;;;;;;8.27;5.93;;;20.70;73.60;;;;;;5035861;28;20485;-72
2023/09/16 12:25:53;;;;;;;6.35;5.70;;;20.70;75.90;;;;;;5032027;28;20025;-71
2023/09/16 12:28:22;;;;;;;7.05;5.95;;;20.80;77.00;;;;;;5034061;28;20025;-77
2023/09/16 12:30:51;;;;;;;7.97;5.72;;;20.90;75.40;;;;;;5036681;28;20112;-78
2023/09/16 12:33:20;;;;;;;10.23;6.57;;;21.00;75.40;;;;;;5043132;28;20029;-73
2023/09/16 12:35:48;;;;;;;7.18;6.47;;;21.00;73.30;;;;;;5037188;28;20029;-73
2023/09/16 12:38:17;;;;;;;7.70;5.80;;;21.00;72.90;;;;;;5036129;28;20086;-79
2023/09/16 12:40:44;;;;;;;6.82;5.85;;;21.00;73.10;;;;;;5034415;28;20032;-73
2023/09/16 12:43:11;;;;;;;9.30;7.00;;;21.10;73.50;;;;;;5030404;28;20105;-78